Bromley, United Kingdom
Current Conditions -  °F | °C
As of 9:50 PM on Monday 24 Nov 2014 (Local Time) from EGLC Reporting Station
Haze Haze  
Wind Chill: 39°   Ceiling: Unl
Heat Index: 39°   Visibility: 3mi
Dew Point: 39°   Wind: 3mph
Humidity: 100%   Direction: 360°N
Pressure: 30.33"   Gusts: NA
Location:  51.41°N, 0.01°E
Report Text: EGLC 242150Z AUTO 36003KT 5000 BR NCD 04/04 Q1027
Loading
Personal Weather Stations






























Interactive Weather Map New forecast layout! Learn more

10-Day Weather Forecast

Advertisements
Track Severe Weather on mobile